Time;durP1;ratioP1;P1;durP2;ratioP2;P2;SDS_P1;SDS_P2;PMS_P1;PMS_P2;Temp;Humidity;BMP_temperature;BMP_pressure;BME280_temperature;BME280_humidity;BME280_pressure;Samples;Min_cycle;Max_cycle;Signal;HPM_P1;HPM_P2
2021/07/12 00:01:36;;;;;;;0.40;0.05;;;21.30;61.90;;;;;;5012128;28;20042;-86
2021/07/12 00:04:02;;;;;;;0.63;0.10;;;21.40;62.00;;;;;;4991959;28;20038;-85
2021/07/12 00:06:28;;;;;;;0.00;0.00;;;21.30;62.10;;;;;;5011226;28;20038;-85
2021/07/12 00:08:55;;;;;;;0.35;0.10;;;21.30;62.10;;;;;;5012593;28;20022;-86
2021/07/12 00:11:21;;;;;;;0.03;0.00;;;21.30;62.20;;;;;;5027715;28;20045;-86
2021/07/12 00:13:48;;;;;;;0.15;0.00;;;21.20;62.20;;;;;;5012464;28;20488;-86
2021/07/12 00:16:15;;;;;;;0.60;0.10;;;21.20;62.30;;;;;;5012378;28;20030;-85
2021/07/12 00:18:41;;;;;;;0.00;0.00;;;21.20;62.40;;;;;;5011321;28;20045;-86
2021/07/12 00:21:08;;;;;;;0.00;0.00;;;21.20;62.30;;;;;;5012033;28;20714;-87
2021/07/12 00:23:34;;;;;;;0.08;0.00;;;21.20;62.40;;;;;;5012295;28;20412;-86
2021/07/12 00:26:03;;;;;;;0.15;0.08;;;21.30;62.50;;;;;;5012308;28;20469;-85
2021/07/12 00:28:30;;;;;;;0.10;0.00;;;21.20;62.40;;;;;;5012369;28;20030;-86
2021/07/12 00:30:56;;;;;;;0.35;0.10;;;21.20;62.40;;;;;;5011006;28;20049;-86
2021/07/12 00:33:22;;;;;;;0.43;0.10;;;21.30;62.50;;;;;;5007097;28;20481;-88
2021/07/12 00:35:48;;;;;;;0.98;0.20;;;21.20;62.40;;;;;;5005192;28;20046;-86
2021/07/12 00:38:15;;;;;;;0.10;0.00;;;21.30;62.50;;;;;;5027333;28;20030;-86
2021/07/12 00:40:41;;;;;;;0.98;0.20;;;21.20;62.40;;;;;;5027313;28;20393;-86
2021/07/12 00:43:07;;;;;;;0.00;0.00;;;21.30;62.60;;;;;;5011530;28;20037;-86
2021/07/12 00:45:33;;;;;;;0.70;0.70;;;21.20;62.50;;;;;;5011569;28;20041;-86
2021/07/12 00:47:59;;;;;;;4.38;0.40;;;21.20;62.60;;;;;;5027283;28;20036;-86
2021/07/12 00:50:28;;;;;;;0.85;0.35;;;21.20;62.60;;;;;;5026789;28;20034;-86
2021/07/12 00:52:54;;;;;;;0.10;0.00;;;21.20;62.70;;;;;;5026645;28;20053;-86
2021/07/12 00:55:27;;;;;;;0.08;0.03;;;21.20;62.80;;;;;;5012152;28;20053;-87
2021/07/12 00:57:54;;;;;;;0.30;0.20;;;21.20;62.90;;;;;;5009420;28;20056;-84
2021/07/12 01:00:21;;;;;;;0.10;0.00;;;21.10;62.80;;;;;;5011617;28;20030;-85
2021/07/12 01:02:47;;;;;;;0.20;0.00;;;21.20;62.90;;;;;;5011862;28;20022;-85
2021/07/12 01:05:16;;;;;;;0.38;0.10;;;21.10;62.90;;;;;;5026865;28;20033;-84
2021/07/12 01:07:42;;;;;;;0.35;0.10;;;21.10;62.90;;;;;;4996406;28;20029;-86
2021/07/12 01:10:10;;;;;;;0.30;0.00;;;21.00;63.00;;;;;;5011271;28;20377;-86
2021/07/12 01:12:36;;;;;;;0.20;0.03;;;21.00;63.00;;;;;;5026973;28;20477;-86
2021/07/12 01:15:15;;;;;;;0.17;0.03;;;21.10;63.10;;;;;;5011268;28;20392;-80
2021/07/12 01:18:00;;;;;;;1.45;0.22;;;21.00;63.10;;;;;;5026776;28;20018;-86
2021/07/12 01:20:45;;;;;;;1.20;0.52;;;21.00;63.10;;;;;;5010348;28;20488;-86
2021/07/12 01:23:21;;;;;;;0.40;0.10;;;21.00;63.10;;;;;;5011951;28;20029;-86
2021/07/12 01:26:05;;;;;;;0.90;0.25;;;21.00;63.10;;;;;;4996801;28;20096;-86
2021/07/12 01:28:56;;;;;;;0.63;0.17;;;21.10;63.20;;;;;;5011825;28;20033;-86
2021/07/12 01:31:47;;;;;;;0.10;0.00;;;21.10;63.30;;;;;;5008673;28;20042;-83
2021/07/12 01:34:23;;;;;;;;;;;21.10;63.30;;;;;;5007387;28;20037;-85
2021/07/12 01:36:57;;;;;;;0.20;0.00;;;21.10;63.30;;;;;;5009472;28;19917;-86
2021/07/12 01:39:28;;;;;;;0.88;0.10;;;21.10;63.10;;;;;;5011500;28;20045;-86
2021/07/12 01:42:06;;;;;;;0.68;0.10;;;21.10;63.20;;;;;;5011438;28;20100;-86
2021/07/12 01:44:58;;;;;;;0.15;0.10;;;21.00;63.20;;;;;;5025380;28;20041;-86
2021/07/12 01:47:50;;;;;;;0.00;0.00;;;21.00;63.30;;;;;;5014267;28;20489;-86
2021/07/12 01:50:22;;;;;;;0.40;0.10;;;21.10;63.40;;;;;;5030349;28;20022;-86
2021/07/12 01:53:11;;;;;;;1.02;0.20;;;21.00;63.30;;;;;;5014950;28;20045;-86
2021/07/12 01:55:40;;;;;;;0.45;0.10;;;21.00;63.50;;;;;;5015113;28;20033;-86
2021/07/12 01:58:10;;;;;;;0.10;0.00;;;20.90;63.60;;;;;;5014361;28;20350;-86
2021/07/12 02:00:36;;;;;;;0.08;0.00;;;21.00;63.60;;;;;;5014581;28;20041;-86
2021/07/12 02:03:02;;;;;;;0.28;0.00;;;20.90;63.60;;;;;;5007989;28;20062;-83
2021/07/12 02:05:30;;;;;;;0.88;0.57;;;20.90;63.60;;;;;;5006966;28;20042;-82
2021/07/12 02:07:56;;;;;;;1.10;0.20;;;20.90;63.70;;;;;;5007014;28;20030;-85
2021/07/12 02:10:26;;;;;;;0.10;0.00;;;20.90;63.70;;;;;;5027304;28;20037;-86
2021/07/12 02:12:52;;;;;;;0.13;0.00;;;20.90;63.80;;;;;;4990015;28;20059;-85
2021/07/12 02:15:18;;;;;;;0.40;0.00;;;20.90;64.00;;;;;;5008462;28;20041;-87
2021/07/12 02:17:44;;;;;;;0.57;0.10;;;20.80;64.00;;;;;;5020608;28;20033;-85
2021/07/12 02:20:11;;;;;;;0.32;0.10;;;20.80;64.00;;;;;;5021648;28;20038;-85
2021/07/12 02:22:37;;;;;;;0.98;0.20;;;20.80;64.00;;;;;;5025651;28;20030;-83
2021/07/12 02:25:05;;;;;;;0.03;0.03;;;20.80;64.20;;;;;;5008640;28;20030;-84
2021/07/12 02:27:32;;;;;;;5.00;0.32;;;20.70;64.10;;;;;;5020613;28;20038;-84
2021/07/12 02:29:59;;;;;;;0.20;0.10;;;20.80;64.20;;;;;;5020500;28;20034;-85
2021/07/12 02:32:25;;;;;;;0.13;0.03;;;20.80;64.20;;;;;;5019816;28;20057;-86
2021/07/12 02:34:51;;;;;;;0.40;0.03;;;20.80;64.30;;;;;;5024457;28;20400;-85
2021/07/12 02:37:17;;;;;;;0.47;0.08;;;20.80;64.40;;;;;;5026038;28;20508;-85
2021/07/12 02:39:46;;;;;;;0.22;0.08;;;20.70;64.40;;;;;;5013353;28;20503;-85
2021/07/12 02:42:12;;;;;;;0.03;0.00;;;20.70;64.40;;;;;;5028929;28;20038;-86
2021/07/12 02:44:38;;;;;;;0.52;0.00;;;20.70;64.40;;;;;;5028913;28;20050;-82
2021/07/12 02:47:04;;;;;;;0.00;0.00;;;20.70;64.40;;;;;;5028945;28;20396;-86
2021/07/12 02:49:31;;;;;;;1.13;0.40;;;20.70;64.50;;;;;;5029278;28;20469;-86
2021/07/12 02:51:59;;;;;;;0.20;0.05;;;20.70;64.50;;;;;;5013242;28;20049;-86
2021/07/12 02:54:31;;;;;;;0.30;0.00;;;20.70;64.60;;;;;;5029316;28;20357;-85
2021/07/12 02:56:57;;;;;;;0.65;0.30;;;20.70;64.60;;;;;;5027962;28;20029;-86
2021/07/12 02:59:24;;;;;;;0.00;0.00;;;20.70;64.60;;;;;;5013441;28;20022;-85
2021/07/12 03:01:50;;;;;;;0.00;0.00;;;20.70;64.70;;;;;;5028631;28;20030;-86
2021/07/12 03:04:16;;;;;;;0.28;0.00;;;20.70;64.70;;;;;;5013917;28;20555;-84
2021/07/12 03:06:44;;;;;;;0.00;0.00;;;20.70;64.80;;;;;;5014235;28;20048;-86
2021/07/12 03:09:13;;;;;;;0.03;0.00;;;20.60;64.90;;;;;;5013719;28;20030;-86
2021/07/12 03:11:52;;;;;;;0.03;0.00;;;20.60;64.90;;;;;;5013561;28;20052;-85
2021/07/12 03:14:24;;;;;;;0.10;0.00;;;20.60;64.90;;;;;;5028336;28;20026;-86
2021/07/12 03:16:50;;;;;;;0.00;0.00;;;20.60;64.90;;;;;;5027834;28;20040;-86
2021/07/12 03:19:23;;;;;;;0.00;0.00;;;20.60;65.00;;;;;;5028977;28;20034;-86
2021/07/12 03:21:49;;;;;;;0.10;0.00;;;20.60;65.10;;;;;;5010344;28;20022;-87
2021/07/12 03:24:16;;;;;;;2.03;0.68;;;20.50;65.00;;;;;;5028531;28;20034;-86
2021/07/12 03:26:43;;;;;;;0.32;0.08;;;20.50;65.10;;;;;;5028521;28;20022;-86
2021/07/12 03:29:10;;;;;;;0.03;0.00;;;20.50;65.20;;;;;;5028205;28;20422;-86
2021/07/12 03:31:37;;;;;;;0.60;0.10;;;20.50;65.20;;;;;;5028368;28;20412;-86
2021/07/12 03:34:03;;;;;;;0.43;0.10;;;20.50;65.20;;;;;;5012916;28;20037;-84
2021/07/12 03:36:29;;;;;;;0.10;0.00;;;20.50;65.20;;;;;;5028367;28;20041;-85
2021/07/12 03:38:56;;;;;;;0.47;0.13;;;20.50;65.30;;;;;;5028368;28;20030;-85
2021/07/12 03:41:22;;;;;;;0.10;0.00;;;20.50;65.30;;;;;;5028301;28;20369;-86
2021/07/12 03:43:48;;;;;;;3.25;0.10;;;20.50;65.40;;;;;;5028069;28;20420;-86
2021/07/12 03:46:14;;;;;;;0.00;0.00;;;20.40;66.10;;;;;;5028108;28;20040;-84
2021/07/12 03:48:44;;;;;;;0.15;0.00;;;20.40;65.40;;;;;;5011878;28;20030;-86
2021/07/12 03:51:20;;;;;;;0.52;0.00;;;20.40;66.30;;;;;;5012405;28;20045;-85
2021/07/12 03:53:46;;;;;;;0.30;0.10;;;20.40;65.60;;;;;;5027447;28;20409;-85
2021/07/12 03:56:12;;;;;;;0.22;0.10;;;20.40;65.60;;;;;;5012904;28;20037;-85
2021/07/12 03:58:38;;;;;;;0.38;0.28;;;20.40;65.70;;;;;;5012808;28;20026;-85
2021/07/12 04:01:05;;;;;;;0.20;0.10;;;20.30;65.70;;;;;;5012849;28;20374;-84
2021/07/12 04:03:31;;;;;;;0.90;0.10;;;20.30;65.80;;;;;;5027735;28;20030;-85
2021/07/12 04:05:58;;;;;;;0.35;0.32;;;20.20;65.80;;;;;;5027721;28;20041;-85
2021/07/12 04:08:24;;;;;;;0.43;0.10;;;20.20;65.90;;;;;;5012576;28;20042;-83
2021/07/12 04:10:50;;;;;;;0.13;0.03;;;20.20;65.90;;;;;;5027778;28;20033;-86
2021/07/12 04:13:16;;;;;;;0.30;0.13;;;20.20;66.10;;;;;;5010938;28;20046;-83
2021/07/12 04:15:43;;;;;;;0.00;0.00;;;20.10;66.00;;;;;;5012435;28;20033;-86
2021/07/12 04:18:09;;;;;;;0.10;0.03;;;20.10;66.10;;;;;;5027491;28;20038;-85
2021/07/12 04:20:36;;;;;;;0.38;0.00;;;20.00;66.20;;;;;;5012408;28;20025;-85
2021/07/12 04:23:02;;;;;;;0.47;0.28;;;20.00;66.20;;;;;;5012540;28;20029;-85
2021/07/12 04:25:28;;;;;;;0.40;0.20;;;20.00;66.30;;;;;;5027041;28;20034;-84
2021/07/12 04:27:56;;;;;;;3.78;0.22;;;19.90;66.30;;;;;;5012579;28;20036;-85
2021/07/12 04:30:23;;;;;;;0.10;0.10;;;19.90;66.40;;;;;;5011135;28;20046;-85
2021/07/12 04:32:49;;;;;;;0.00;0.00;;;19.90;66.40;;;;;;5027238;28;20030;-85
2021/07/12 04:35:15;;;;;;;0.00;0.00;;;19.80;66.50;;;;;;5012373;28;20489;-85
2021/07/12 04:37:41;;;;;;;0.10;0.00;;;19.80;66.50;;;;;;5012275;28;20044;-85
2021/07/12 04:40:08;;;;;;;0.03;0.00;;;19.80;66.60;;;;;;5011569;28;20034;-85
2021/07/12 04:42:35;;;;;;;0.20;0.10;;;19.80;66.60;;;;;;5011862;28;20029;-85
2021/07/12 04:45:02;;;;;;;0.57;0.10;;;19.80;66.50;;;;;;5027429;28;20033;-85
2021/07/12 04:47:29;;;;;;;0.10;0.05;;;19.80;66.60;;;;;;5011415;28;20034;-85
2021/07/12 04:49:55;;;;;;;0.17;0.00;;;19.80;66.60;;;;;;5012438;28;20033;-86
2021/07/12 04:52:21;;;;;;;0.35;0.10;;;19.80;66.60;;;;;;5011035;28;20480;-86
2021/07/12 04:54:47;;;;;;;0.00;0.00;;;19.80;66.50;;;;;;5012427;28;20042;-85
2021/07/12 04:57:13;;;;;;;0.03;0.00;;;19.80;66.40;;;;;;5011732;28;20026;-82
2021/07/12 04:59:40;;;;;;;0.63;0.10;;;19.80;66.40;;;;;;5027177;28;20034;-85
2021/07/12 05:02:07;;;;;;;0.20;0.10;;;19.90;66.50;;;;;;5011525;28;20033;-85
2021/07/12 05:04:33;;;;;;;1.35;0.20;;;19.90;66.40;;;;;;5012108;28;20057;-85
2021/07/12 05:07:00;;;;;;;0.10;0.00;;;19.90;66.50;;;;;;5012471;28;20373;-86
2021/07/12 05:09:26;;;;;;;0.10;0.00;;;19.90;66.40;;;;;;5027284;28;20037;-86
2021/07/12 05:11:53;;;;;;;1.00;0.10;;;19.90;66.40;;;;;;5011854;28;20026;-85
2021/07/12 05:14:19;;;;;;;0.00;0.00;;;19.90;66.30;;;;;;5011655;28;20504;-87
2021/07/12 05:16:45;;;;;;;0.15;0.00;;;19.90;66.30;;;;;;5026528;28;20034;-86
2021/07/12 05:19:14;;;;;;;0.20;0.10;;;19.90;66.60;;;;;;5027271;28;20030;-85
2021/07/12 05:21:41;;;;;;;0.10;0.00;;;19.90;66.40;;;;;;5011302;28;20041;-85
2021/07/12 05:24:07;;;;;;;0.00;0.00;;;19.90;66.40;;;;;;5015355;28;20029;-84
2021/07/12 05:26:33;;;;;;;0.00;0.00;;;19.90;66.40;;;;;;5015948;28;20022;-85
2021/07/12 05:28:59;;;;;;;0.00;0.00;;;19.90;66.30;;;;;;5015717;28;20014;-85
2021/07/12 05:31:25;;;;;;;0.10;0.10;;;19.90;66.30;;;;;;5014942;28;20053;-85
2021/07/12 05:33:52;;;;;;;2.50;0.10;;;19.90;66.30;;;;;;5014686;28;20046;-86
2021/07/12 05:36:18;;;;;;;0.17;0.03;;;19.90;66.30;;;;;;5030665;28;20029;-86
2021/07/12 05:38:44;;;;;;;0.70;0.10;;;19.90;66.30;;;;;;5015037;28;20046;-86
2021/07/12 05:41:10;;;;;;;0.20;0.10;;;19.90;66.40;;;;;;5015492;28;20491;-85
2021/07/12 05:43:36;;;;;;;0.08;0.08;;;19.90;66.30;;;;;;5030597;28;20042;-86
2021/07/12 05:46:03;;;;;;;0.10;0.10;;;19.90;66.40;;;;;;5015479;28;20029;-85
2021/07/12 05:48:29;;;;;;;0.20;0.00;;;19.90;66.30;;;;;;5030322;28;20041;-86
2021/07/12 05:50:55;;;;;;;0.30;0.10;;;19.90;66.40;;;;;;5014887;28;20392;-85
2021/07/12 05:53:21;;;;;;;0.35;0.17;;;19.80;66.40;;;;;;5014598;28;20037;-86
2021/07/12 05:55:47;;;;;;;0.20;0.10;;;19.80;66.40;;;;;;5015141;28;20396;-85
2021/07/12 05:58:13;;;;;;;0.43;0.10;;;19.80;66.50;;;;;;5015515;28;20034;-83
2021/07/12 06:00:40;;;;;;;0.00;0.00;;;19.80;66.50;;;;;;5014715;28;20397;-85
2021/07/12 06:03:06;;;;;;;0.05;0.05;;;19.80;66.50;;;;;;5030007;28;20026;-85
2021/07/12 06:05:32;;;;;;;0.35;0.10;;;19.90;66.50;;;;;;5014826;28;20481;-83
2021/07/12 06:07:58;;;;;;;0.35;0.25;;;19.90;66.40;;;;;;5014611;28;20030;-85
2021/07/12 06:10:24;;;;;;;0.00;0.00;;;20.00;66.30;;;;;;5014916;28;20034;-87
2021/07/12 06:12:50;;;;;;;0.47;0.10;;;20.00;66.20;;;;;;5013909;28;20404;-86
2021/07/12 06:15:16;;;;;;;0.50;0.25;;;20.00;66.20;;;;;;5029452;28;20030;-85
2021/07/12 06:17:44;;;;;;;0.35;0.10;;;20.00;66.20;;;;;;5014771;28;20021;-86
2021/07/12 06:20:14;;;;;;;0.47;0.28;;;20.10;66.20;;;;;;5014336;28;20044;-85
2021/07/12 06:22:40;;;;;;;0.20;0.00;;;20.20;66.10;;;;;;5028999;28;20488;-86
2021/07/12 06:25:06;;;;;;;0.30;0.10;;;20.30;65.90;;;;;;4994193;28;20539;-86
2021/07/12 06:27:32;;;;;;;0.15;0.10;;;20.40;65.70;;;;;;5013672;28;20037;-86
2021/07/12 06:29:59;;;;;;;0.00;0.00;;;20.50;65.60;;;;;;5029579;28;20026;-85
2021/07/12 06:32:25;;;;;;;0.10;0.00;;;20.50;65.60;;;;;;5027764;28;20029;-86
2021/07/12 06:34:51;;;;;;;0.03;0.00;;;20.50;65.50;;;;;;5015133;28;20041;-86
2021/07/12 06:37:17;;;;;;;0.13;0.10;;;20.50;65.50;;;;;;5014516;28;20037;-85
2021/07/12 06:39:43;;;;;;;0.40;0.10;;;20.50;65.50;;;;;;5014633;28;20030;-85
2021/07/12 06:42:09;;;;;;;0.43;0.10;;;20.50;65.50;;;;;;5029526;28;20029;-85
2021/07/12 06:44:35;;;;;;;0.38;0.20;;;20.60;65.60;;;;;;5029377;28;20032;-85
2021/07/12 06:47:01;;;;;;;0.47;0.10;;;20.70;65.50;;;;;;5028932;28;20037;-86
2021/07/12 06:49:27;;;;;;;0.43;0.20;;;20.90;65.30;;;;;;5014408;28;20018;-86
2021/07/12 06:51:53;;;;;;;2.95;0.00;;;21.20;64.80;;;;;;5012209;28;20037;-85
2021/07/12 06:54:20;;;;;;;0.03;0.00;;;21.60;64.30;;;;;;5029153;28;20042;-86
2021/07/12 06:56:46;;;;;;;0.30;0.10;;;21.90;63.60;;;;;;5009242;28;20041;-83
2021/07/12 06:59:12;;;;;;;0.85;0.10;;;22.20;63.00;;;;;;5017545;28;20038;-86
2021/07/12 07:01:38;;;;;;;0.00;0.00;;;22.40;62.60;;;;;;5013670;28;20508;-86
2021/07/12 07:04:04;;;;;;;0.00;0.00;;;22.40;62.50;;;;;;5014429;28;20038;-87
2021/07/12 07:06:30;;;;;;;0.50;0.08;;;22.30;63.50;;;;;;5028703;28;20396;-86
2021/07/12 07:08:56;;;;;;;0.93;0.17;;;22.20;63.10;;;;;;5013512;28;20424;-86
2021/07/12 07:11:23;;;;;;;0.45;0.05;;;22.00;63.50;;;;;;5013640;28;20022;-85
2021/07/12 07:13:49;;;;;;;2.17;0.08;;;21.80;63.80;;;;;;5012532;28;20448;-85
2021/07/12 07:16:15;;;;;;;0.00;0.00;;;21.70;64.20;;;;;;5013531;28;20035;-84
2021/07/12 07:18:41;;;;;;;0.55;0.10;;;21.60;64.50;;;;;;5013737;28;20033;-85
2021/07/12 07:21:08;;;;;;;0.05;0.00;;;21.50;64.60;;;;;;5013151;28;20030;-86
2021/07/12 07:23:34;;;;;;;0.47;0.15;;;21.40;65.60;;;;;;5013457;28;20030;-86
2021/07/12 07:26:00;;;;;;;0.17;0.00;;;21.30;65.00;;;;;;5028444;28;20029;-86
2021/07/12 07:28:26;;;;;;;1.10;0.22;;;21.30;65.10;;;;;;5012312;28;20026;-86
2021/07/12 07:30:53;;;;;;;0.30;0.00;;;21.30;65.00;;;;;;5013071;28;20053;-85
2021/07/12 07:33:19;;;;;;;0.65;0.08;;;21.40;64.90;;;;;;5028294;28;20045;-86
2021/07/12 07:35:45;;;;;;;0.43;0.00;;;21.40;64.90;;;;;;5012955;28;20033;-85
2021/07/12 07:38:11;;;;;;;4.45;0.08;;;21.30;64.90;;;;;;5013257;28;20026;-86
2021/07/12 07:40:37;;;;;;;0.32;0.10;;;21.30;65.00;;;;;;5013321;28;20049;-86
2021/07/12 07:43:03;;;;;;;0.00;0.00;;;21.20;65.10;;;;;;5013440;28;20483;-86
2021/07/12 07:45:32;;;;;;;0.00;0.00;;;21.20;65.20;;;;;;5027665;28;20038;-86
2021/07/12 07:47:58;;;;;;;0.00;0.00;;;21.20;65.20;;;;;;5028013;28;20018;-87
2021/07/12 07:50:24;;;;;;;0.45;0.10;;;21.20;65.20;;;;;;5012561;28;20022;-89
2021/07/12 07:52:50;;;;;;;0.00;0.00;;;21.20;65.20;;;;;;5028043;28;20033;-86
2021/07/12 07:55:17;;;;;;;0.25;0.00;;;21.20;65.30;;;;;;5013049;28;20045;-86
2021/07/12 07:57:43;;;;;;;0.10;0.03;;;21.20;65.30;;;;;;5013169;28;20034;-86
2021/07/12 08:00:12;;;;;;;0.30;0.10;;;21.20;65.40;;;;;;5012314;28;20026;-86
2021/07/12 08:02:38;;;;;;;0.05;0.05;;;21.10;65.40;;;;;;5013936;28;20045;-85
2021/07/12 08:05:06;;;;;;;0.10;0.00;;;21.10;65.50;;;;;;5012460;28;20415;-88
2021/07/12 08:07:35;;;;;;;0.40;0.00;;;21.00;65.50;;;;;;5012800;28;20518;-86
2021/07/12 08:10:03;;;;;;;0.60;0.15;;;21.00;65.60;;;;;;5012030;28;20465;-86
2021/07/12 08:12:29;;;;;;;0.00;0.00;;;21.00;65.60;;;;;;5012484;28;20026;-87
2021/07/12 08:14:55;;;;;;;0.20;0.00;;;21.00;65.70;;;;;;5027640;28;20050;-86
2021/07/12 08:17:22;;;;;;;0.43;0.13;;;20.90;65.70;;;;;;5012008;28;20022;-85
2021/07/12 08:19:48;;;;;;;0.10;0.00;;;20.80;65.80;;;;;;5027350;28;20030;-86
2021/07/12 08:22:14;;;;;;;0.98;0.05;;;20.80;66.00;;;;;;5011895;28;20034;-87
2021/07/12 08:24:40;;;;;;;0.00;0.00;;;20.70;66.20;;;;;;5012447;28;20030;-86
2021/07/12 08:27:06;;;;;;;0.50;0.20;;;20.60;66.40;;;;;;5012339;28;20041;-84
2021/07/12 08:29:32;;;;;;;0.00;0.00;;;20.60;66.40;;;;;;5012136;28;20503;-85
2021/07/12 08:31:58;;;;;;;0.10;0.03;;;20.50;66.50;;;;;;5012018;28;20034;-85
2021/07/12 08:34:24;;;;;;;0.00;0.00;;;20.50;66.50;;;;;;5027170;28;20499;-86
2021/07/12 08:36:51;;;;;;;0.00;0.00;;;20.50;66.60;;;;;;5011601;28;20033;-85
2021/07/12 08:39:18;;;;;;;0.17;0.08;;;20.50;66.60;;;;;;5027496;28;20503;-85
2021/07/12 08:41:44;;;;;;;0.10;0.00;;;20.50;66.60;;;;;;5027579;28;20415;-85
2021/07/12 08:44:11;;;;;;;0.08;0.00;;;20.50;66.60;;;;;;5027308;28;20030;-85
2021/07/12 08:46:37;;;;;;;0.98;0.17;;;20.50;66.60;;;;;;5011537;28;20049;-86
2021/07/12 08:49:03;;;;;;;0.00;0.00;;;20.50;66.70;;;;;;5011217;28;20037;-86
2021/07/12 08:51:29;;;;;;;0.10;0.10;;;20.50;66.80;;;;;;5027315;28;20026;-86
2021/07/12 08:53:55;;;;;;;0.00;0.00;;;20.50;66.70;;;;;;5011986;28;20049;-86
2021/07/12 08:56:22;;;;;;;0.00;0.00;;;20.50;66.70;;;;;;5011484;28;20480;-86
2021/07/12 08:58:48;;;;;;;0.00;0.00;;;20.50;66.70;;;;;;5012297;28;20037;-87
2021/07/12 09:01:14;;;;;;;0.00;0.00;;;20.60;66.70;;;;;;5027311;28;20401;-87
2021/07/12 09:03:42;;;;;;;0.00;0.00;;;20.70;66.60;;;;;;5011700;28;20053;-86
2021/07/12 09:06:11;;;;;;;0.00;0.00;;;20.80;66.50;;;;;;5011603;28;20042;-86
2021/07/12 09:08:40;;;;;;;0.00;0.00;;;20.90;66.50;;;;;;5011847;28;20100;-85
2021/07/12 09:11:08;;;;;;;0.00;0.00;;;21.00;66.30;;;;;;5027089;28;20491;-85
2021/07/12 09:13:49;;;;;;;0.00;0.00;;;21.10;66.00;;;;;;5026713;28;20056;-86
2021/07/12 09:16:33;;;;;;;;;;;21.20;65.90;;;;;;5008250;28;20026;-85
2021/07/12 09:19:11;;;;;;;0.00;0.00;;;21.30;65.80;;;;;;5010995;28;19913;-87
2021/07/12 09:21:40;;;;;;;0.00;0.00;;;21.30;65.80;;;;;;5011678;28;20392;-85
2021/07/12 09:24:13;;;;;;;0.00;0.00;;;21.20;65.90;;;;;;5027108;28;20034;-86
2021/07/12 09:26:44;;;;;;;0.00;0.00;;;21.20;66.00;;;;;;5011811;28;20398;-86
2021/07/12 09:29:21;;;;;;;0.03;0.00;;;21.10;66.30;;;;;;5011939;28;20431;-85
2021/07/12 09:31:47;;;;;;;0.45;0.10;;;21.00;66.50;;;;;;4995834;28;20037;-85
2021/07/12 09:34:14;;;;;;;0.10;0.00;;;21.00;66.60;;;;;;5027275;28;20567;-85
2021/07/12 09:36:40;;;;;;;0.00;0.00;;;21.00;66.70;;;;;;5011679;28;20396;-85
2021/07/12 09:39:25;;;;;;;0.00;0.00;;;21.00;66.70;;;;;;5011560;28;20041;-86
2021/07/12 09:41:57;;;;;;;0.00;0.00;;;21.10;66.80;;;;;;5011662;28;20021;-85
2021/07/12 09:44:24;;;;;;;0.00;0.00;;;21.20;66.60;;;;;;5011329;28;20382;-86
2021/07/12 09:46:51;;;;;;;0.00;0.00;;;21.40;66.40;;;;;;5010825;28;20030;-86
2021/07/12 09:49:22;;;;;;;0.00;0.00;;;21.50;66.20;;;;;;5026874;28;20394;-86
2021/07/12 09:51:58;;;;;;;0.00;0.00;;;21.60;66.00;;;;;;5010013;28;20221;-86
2021/07/12 09:54:29;;;;;;;0.20;0.00;;;21.70;65.90;;;;;;5026647;28;20038;-86
2021/07/12 09:56:56;;;;;;;0.00;0.00;;;21.80;65.70;;;;;;5025686;28;20481;-86
2021/07/12 09:59:22;;;;;;;0.00;0.00;;;21.90;65.60;;;;;;5011532;28;20041;-86
2021/07/12 10:01:53;;;;;;;0.38;0.03;;;21.90;65.60;;;;;;5025844;28;20045;-86
2021/07/12 10:04:20;;;;;;;0.47;0.10;;;22.00;65.60;;;;;;5011552;28;20022;-87
2021/07/12 10:06:47;;;;;;;0.17;0.00;;;22.00;65.50;;;;;;5012215;28;20030;-87
2021/07/12 10:09:14;;;;;;;0.20;0.03;;;22.10;65.50;;;;;;5014939;28;20042;-87
2021/07/12 10:11:42;;;;;;;0.00;0.00;;;22.10;65.40;;;;;;5030099;28;20026;-85
2021/07/12 10:14:09;;;;;;;0.00;0.00;;;22.20;65.40;;;;;;5029240;28;20524;-87
2021/07/12 10:16:35;;;;;;;0.00;0.00;;;22.30;65.20;;;;;;5029590;28;20519;-87
2021/07/12 10:19:01;;;;;;;0.43;0.00;;;22.30;65.10;;;;;;5015312;28;20030;-87
2021/07/12 10:21:41;;;;;;;3.03;0.28;;;22.40;65.00;;;;;;5029877;28;20041;-86
2021/07/12 10:24:07;;;;;;;0.00;0.00;;;22.40;64.90;;;;;;5009109;28;20051;-86
2021/07/12 10:27:01;;;;;;;0.00;0.00;;;22.50;64.60;;;;;;5020858;28;20293;-86
2021/07/12 10:29:35;;;;;;;0.00;0.00;;;22.50;64.60;;;;;;5027096;28;20026;-87
2021/07/12 10:32:03;;;;;;;0.08;0.00;;;22.60;64.50;;;;;;5011630;28;20058;-86
2021/07/12 10:34:29;;;;;;;0.90;0.00;;;22.60;64.50;;;;;;5014496;28;20038;-86
2021/07/12 10:37:03;;;;;;;0.10;0.00;;;22.70;64.40;;;;;;5012818;28;20460;-86
2021/07/12 10:39:57;;;;;;;0.32;0.15;;;22.90;64.00;;;;;;5014332;28;20369;-87
2021/07/12 10:42:41;;;;;;;0.10;0.00;;;22.90;63.80;;;;;;5014188;28;20483;-86
2021/07/12 10:45:14;;;;;;;0.45;0.00;;;22.90;63.80;;;;;;5013490;28;20096;-85
2021/07/12 10:47:42;;;;;;;0.00;0.00;;;22.80;63.90;;;;;;5012759;28;20033;-86
2021/07/12 10:50:37;;;;;;;1.35;0.05;;;22.70;63.90;;;;;;5014226;28;20046;-86
2021/07/12 10:53:12;;;;;;;0.00;0.00;;;22.70;64.10;;;;;;5002998;28;20473;-86
2021/07/12 10:55:38;;;;;;;0.25;0.10;;;22.60;64.90;;;;;;5013922;28;20104;-86
2021/07/12 10:58:29;;;;;;;0.00;0.00;;;22.50;64.30;;;;;;5014162;28;20026;-86
2021/07/12 11:00:57;;;;;;;0.00;0.00;;;22.30;64.40;;;;;;5011990;28;20030;-86
2021/07/12 11:03:38;;;;;;;0.00;0.00;;;22.20;64.80;;;;;;5028920;28;20030;-86
2021/07/12 11:06:04;;;;;;;;;;;22.00;65.00;;;;;;5014153;28;20034;-86
2021/07/12 11:08:42;;;;;;;0.00;0.00;;;21.80;65.20;;;;;;5013669;28;19964;-86
2021/07/12 11:11:09;;;;;;;0.00;0.00;;;21.60;65.50;;;;;;5013746;28;20417;-86
2021/07/12 11:13:51;;;;;;;0.45;0.10;;;21.40;65.80;;;;;;5028552;28;20055;-86
2021/07/12 11:16:22;;;;;;;0.03;0.03;;;21.30;66.10;;;;;;5008930;28;20041;-85
2021/07/12 11:18:49;;;;;;;0.00;0.00;;;21.20;66.20;;;;;;5011487;28;20018;-86
2021/07/12 11:21:26;;;;;;;0.25;0.00;;;21.20;66.30;;;;;;5028880;28;20049;-84
2021/07/12 11:23:56;;;;;;;0.30;0.05;;;21.10;66.40;;;;;;5027444;28;20469;-86
2021/07/12 11:26:29;;;;;;;0.45;0.20;;;21.20;67.10;;;;;;5013615;28;20030;-86
2021/07/12 11:29:25;;;;;;;0.10;0.00;;;21.10;66.20;;;;;;5013120;28;20026;-86
2021/07/12 11:32:05;;;;;;;0.00;0.00;;;21.10;66.20;;;;;;4994698;28;20050;-86
2021/07/12 11:34:45;;;;;;;0.10;0.00;;;21.10;66.40;;;;;;5013136;28;20041;-87
2021/07/12 11:37:13;;;;;;;0.10;0.00;;;21.10;66.40;;;;;;5008671;28;20052;-86
2021/07/12 11:39:43;;;;;;;0.10;0.00;;;21.10;66.40;;;;;;5028505;28;20026;-86
2021/07/12 11:42:17;;;;;;;0.40;0.10;;;21.20;66.30;;;;;;5012524;28;20041;-85
2021/07/12 11:44:48;;;;;;;0.00;0.00;;;21.20;66.30;;;;;;5013014;28;20479;-85
2021/07/12 11:47:22;;;;;;;0.30;0.00;;;21.30;66.30;;;;;;5027315;28;20038;-84
2021/07/12 11:49:50;;;;;;;0.17;0.05;;;21.20;66.30;;;;;;5011749;28;20388;-86
2021/07/12 11:52:16;;;;;;;0.10;0.00;;;21.10;66.50;;;;;;5012296;28;20038;-87
2021/07/12 11:54:42;;;;;;;0.00;0.00;;;21.00;66.70;;;;;;5013187;28;20045;-86
2021/07/12 11:57:14;;;;;;;0.13;0.05;;;20.90;66.90;;;;;;5012633;28;20026;-85
2021/07/12 11:59:42;;;;;;;0.00;0.00;;;20.90;67.00;;;;;;5028241;28;20033;-86
2021/07/12 12:02:14;;;;;;;0.10;0.00;;;20.90;67.00;;;;;;5027431;28;20481;-87
2021/07/12 12:04:47;;;;;;;0.40;0.00;;;20.90;67.00;;;;;;5027504;28;20037;-85
2021/07/12 12:07:33;;;;;;;0.00;0.00;;;20.90;66.90;;;;;;5009500;28;20025;-86
2021/07/12 12:10:09;;;;;;;0.10;0.00;;;21.00;66.80;;;;;;4991155;28;20068;-86
2021/07/12 12:12:46;;;;;;;0.10;0.00;;;21.00;66.70;;;;;;5011845;28;20502;-84
2021/07/12 12:15:17;;;;;;;0.20;0.10;;;21.00;66.70;;;;;;5007436;28;20050;-85
2021/07/12 12:17:50;;;;;;;0.00;0.00;;;21.00;66.60;;;;;;5005165;28;20018;-86
2021/07/12 12:20:38;;;;;;;0.80;0.10;;;21.10;66.50;;;;;;5012350;28;20030;-86
2021/07/12 12:23:09;;;;;;;0.00;0.00;;;21.10;66.40;;;;;;5000262;28;20038;-85
2021/07/12 12:25:52;;;;;;;0.00;0.00;;;21.20;66.20;;;;;;5012297;28;20041;-86
2021/07/12 12:28:33;;;;;;;0.10;0.10;;;21.30;65.90;;;;;;5009345;28;20022;-86
2021/07/12 12:31:19;;;;;;;;;;;21.50;65.60;;;;;;5022122;28;20039;-85
2021/07/12 12:34:02;;;;;;;0.20;0.00;;;21.60;65.20;;;;;;5018471;28;20287;-85
2021/07/12 12:36:29;;;;;;;0.00;0.00;;;22.00;64.50;;;;;;5012234;28;20022;-85
2021/07/12 12:39:06;;;;;;;0.63;0.00;;;22.30;63.90;;;;;;5027410;28;20392;-85
2021/07/12 12:41:44;;;;;;;0.52;0.30;;;22.50;63.40;;;;;;5026984;28;20046;-86
2021/07/12 12:44:12;;;;;;;3.60;0.10;;;22.80;63.00;;;;;;5012297;28;20473;-85
2021/07/12 12:46:57;;;;;;;0.00;0.00;;;23.00;62.50;;;;;;5026962;28;20026;-85
2021/07/12 12:49:29;;;;;;;0.10;0.00;;;23.00;62.00;;;;;;5010122;28;20026;-85
2021/07/12 12:52:15;;;;;;;0.00;0.00;;;23.00;61.90;;;;;;5010900;28;20357;-85
2021/07/12 12:54:43;;;;;;;0.00;0.00;;;22.90;61.80;;;;;;5010248;28;20037;-85
2021/07/12 12:57:10;;;;;;;0.00;0.00;;;22.90;61.60;;;;;;5026838;28;20038;-85
2021/07/12 12:59:43;;;;;;;0.25;0.10;;;23.00;61.60;;;;;;5011893;28;20038;-86